Time;durP1;ratioP1;P1;durP2;ratioP2;P2;SDS_P1;SDS_P2;PMS_P1;PMS_P2;Temp;Humidity;BMP_temperature;BMP_pressure;BME280_temperature;BME280_humidity;BME280_pressure;Samples;Min_cycle;Max_cycle;Signal;HPM_P1;HPM_P2
2022/03/10 00:01:58;;;;;;;7.85;5.88;;;20.30;26.60;;;;;;5146575;27;46876;-16
2022/03/10 00:04:25;;;;;;;8.10;5.93;;;20.40;26.60;;;;;;5146400;27;46858;-15
2022/03/10 00:06:52;;;;;;;6.40;5.70;;;20.30;26.60;;;;;;5146868;27;47116;-15
2022/03/10 00:09:19;;;;;;;5.78;5.20;;;20.30;26.60;;;;;;5146299;27;47864;-15
2022/03/10 00:11:47;;;;;;;7.18;5.40;;;20.30;26.60;;;;;;5146502;27;46849;-15
2022/03/10 00:14:14;;;;;;;6.85;6.15;;;20.30;26.70;;;;;;5146551;27;46762;-16
2022/03/10 00:16:41;;;;;;;7.28;5.50;;;20.30;26.70;;;;;;5149749;27;46930;-16
2022/03/10 00:19:08;;;;;;;6.72;5.82;;;20.30;26.60;;;;;;5149574;27;48013;-15
2022/03/10 00:21:34;;;;;;;6.70;5.63;;;20.30;26.60;;;;;;5150036;27;47207;-16
2022/03/10 00:24:01;;;;;;;7.28;5.78;;;20.30;26.70;;;;;;5149736;27;46959;-16
2022/03/10 00:26:28;;;;;;;7.65;6.10;;;20.20;26.70;;;;;;5150560;27;46855;-15
2022/03/10 00:28:56;;;;;;;6.90;5.63;;;20.30;26.70;;;;;;5149872;27;49044;-16
2022/03/10 00:31:22;;;;;;;7.18;6.10;;;20.30;26.60;;;;;;5149877;27;47673;-16
2022/03/10 00:33:49;;;;;;;7.90;5.90;;;20.20;26.60;;;;;;5149935;27;46869;-15
2022/03/10 00:36:16;;;;;;;8.70;5.93;;;20.20;26.60;;;;;;5150110;27;46922;-16
2022/03/10 00:38:43;;;;;;;8.27;5.88;;;20.20;26.60;;;;;;5149801;27;48023;-16
2022/03/10 00:41:10;;;;;;;6.75;5.82;;;20.20;26.70;;;;;;5149810;27;47435;-16
2022/03/10 00:43:37;;;;;;;6.80;6.13;;;20.20;26.70;;;;;;5149611;27;46919;-16
2022/03/10 00:46:05;;;;;;;8.73;5.93;;;20.20;26.60;;;;;;5149786;27;47331;-17
2022/03/10 00:48:31;;;;;;;7.18;6.18;;;20.20;26.60;;;;;;5149691;27;48210;-16
2022/03/10 00:50:58;;;;;;;7.80;6.15;;;20.20;26.60;;;;;;5149306;27;46958;-16
2022/03/10 00:53:25;;;;;;;7.65;6.00;;;20.20;26.70;;;;;;5149732;27;46803;-15
2022/03/10 00:55:51;;;;;;;7.25;6.05;;;20.20;26.70;;;;;;5149613;27;46775;-16
2022/03/10 00:58:18;;;;;;;7.10;6.10;;;20.20;26.70;;;;;;5149496;27;49059;-15
2022/03/10 01:00:45;;;;;;;7.57;6.35;;;20.20;26.70;;;;;;5149388;27;47271;-16
2022/03/10 01:03:13;;;;;;;7.53;5.72;;;20.20;26.70;;;;;;5149485;27;46797;-15
2022/03/10 01:05:40;;;;;;;7.68;5.72;;;20.10;26.70;;;;;;5149666;27;46935;-15
2022/03/10 01:08:06;;;;;;;7.63;5.95;;;20.10;26.70;;;;;;5149274;27;48749;-16
2022/03/10 01:10:33;;;;;;;7.07;5.78;;;20.10;26.70;;;;;;5149073;27;47312;-16
2022/03/10 01:13:00;;;;;;;6.28;5.53;;;20.10;26.60;;;;;;5149327;27;46918;-15
2022/03/10 01:15:28;;;;;;;7.00;5.40;;;20.10;26.60;;;;;;5149362;27;47026;-16
2022/03/10 01:17:55;;;;;;;6.68;5.45;;;20.10;26.70;;;;;;5148863;27;49217;-15
2022/03/10 01:20:24;;;;;;;8.15;6.05;;;20.10;26.70;;;;;;5148630;27;47110;-15
2022/03/10 01:22:50;;;;;;;6.47;5.50;;;20.10;26.60;;;;;;5149208;27;46833;-16
2022/03/10 01:25:18;;;;;;;7.45;6.05;;;20.10;26.60;;;;;;5149081;27;47284;-15
2022/03/10 01:27:44;;;;;;;7.75;6.18;;;20.10;26.60;;;;;;5147727;27;46821;-16
2022/03/10 01:30:12;;;;;;;7.47;5.90;;;20.00;26.60;;;;;;5148762;27;46793;-15
2022/03/10 01:32:38;;;;;;;7.05;5.93;;;20.00;26.60;;;;;;5149070;27;46864;-15
2022/03/10 01:35:06;;;;;;;7.28;6.00;;;20.10;26.60;;;;;;5148961;27;47327;-16
2022/03/10 01:37:37;;;;;;;5.78;5.20;;;20.00;26.60;;;;;;5148535;27;47940;-15
2022/03/10 01:40:04;;;;;;;6.32;5.72;;;20.00;26.60;;;;;;5148734;27;47100;-17
2022/03/10 01:42:30;;;;;;;6.70;5.95;;;20.00;26.60;;;;;;5148641;27;46897;-15
2022/03/10 01:44:57;;;;;;;6.75;5.65;;;20.00;26.60;;;;;;5148530;27;46910;-15
2022/03/10 01:47:24;;;;;;;6.65;5.60;;;20.00;26.60;;;;;;5148611;27;48355;-16
2022/03/10 01:49:51;;;;;;;6.85;5.90;;;20.00;26.60;;;;;;5148639;27;47088;-15
2022/03/10 01:52:17;;;;;;;6.93;5.95;;;20.00;26.60;;;;;;5148780;27;46803;-16
2022/03/10 01:54:45;;;;;;;7.40;5.60;;;20.00;26.60;;;;;;5148860;27;46829;-16
2022/03/10 01:57:12;;;;;;;7.45;5.75;;;19.90;26.60;;;;;;5148264;27;49040;-15
2022/03/10 01:59:39;;;;;;;8.05;6.05;;;19.90;26.60;;;;;;5148399;27;46936;-15
2022/03/10 02:02:06;;;;;;;7.15;5.90;;;19.90;26.60;;;;;;5148391;27;46813;-16
2022/03/10 02:04:33;;;;;;;7.82;6.20;;;19.90;26.60;;;;;;5148415;27;46887;-16
2022/03/10 02:06:59;;;;;;;6.57;5.82;;;19.90;26.50;;;;;;5148214;27;48377;-16
2022/03/10 02:12:11;;;;;;;7.03;5.78;;;19.90;26.60;;;;;;5145524;27;46793;-16
2022/03/10 02:17:22;;;;;;;6.32;5.65;;;19.90;26.50;;;;;;5145342;27;47510;-16
2022/03/10 02:19:50;;;;;;;6.13;5.45;;;19.90;26.60;;;;;;5148074;27;46844;-16
2022/03/10 02:22:18;;;;;;;7.13;5.78;;;19.80;26.60;;;;;;5148231;27;46993;-16
2022/03/10 02:24:45;;;;;;;7.07;6.38;;;19.80;26.60;;;;;;5147980;27;47070;-15
2022/03/10 02:27:14;;;;;;;8.45;6.65;;;19.80;26.50;;;;;;5147900;27;48154;-16
2022/03/10 02:29:41;;;;;;;7.63;5.97;;;19.80;26.50;;;;;;5147582;27;46934;-15
2022/03/10 02:32:08;;;;;;;7.50;6.07;;;19.80;26.60;;;;;;5147789;27;46926;-15
2022/03/10 02:34:34;;;;;;;6.55;5.90;;;19.80;26.60;;;;;;5147770;27;46891;-15
2022/03/10 02:37:01;;;;;;;7.07;5.82;;;19.80;26.60;;;;;;5147877;27;49094;-16
2022/03/10 02:39:29;;;;;;;8.00;6.13;;;19.80;26.60;;;;;;5147433;27;46957;-15
2022/03/10 02:41:56;;;;;;;9.70;6.43;;;19.80;26.50;;;;;;5148006;27;46725;-15
2022/03/10 02:44:24;;;;;;;6.75;6.13;;;19.80;26.50;;;;;;5147791;27;47079;-17
2022/03/10 02:46:51;;;;;;;8.23;6.82;;;19.80;26.50;;;;;;5147429;27;46898;-16
2022/03/10 02:49:17;;;;;;;6.75;5.72;;;19.70;26.50;;;;;;5147482;27;47030;-15
2022/03/10 02:51:44;;;;;;;7.40;5.97;;;19.70;26.50;;;;;;5147834;27;46953;-16
2022/03/10 02:54:11;;;;;;;7.57;6.20;;;19.70;26.50;;;;;;5147773;27;46860;-15
2022/03/10 02:56:39;;;;;;;7.03;6.32;;;19.70;26.50;;;;;;5147620;27;47046;-15
2022/03/10 02:59:06;;;;;;;8.02;6.13;;;19.70;26.50;;;;;;5147529;27;47169;-15
2022/03/10 03:01:32;;;;;;;7.10;6.32;;;19.70;26.60;;;;;;5147645;27;46832;-16
2022/03/10 03:03:59;;;;;;;7.07;6.15;;;19.70;26.60;;;;;;5147597;27;46958;-15
2022/03/10 03:06:26;;;;;;;9.00;6.68;;;19.70;26.50;;;;;;5147266;27;46833;-16
2022/03/10 03:08:52;;;;;;;8.48;6.18;;;19.70;27.00;;;;;;5147296;27;46976;-15
2022/03/10 03:11:19;;;;;;;9.15;7.00;;;19.70;26.50;;;;;;5147181;27;46906;-16
2022/03/10 03:13:47;;;;;;;7.93;6.35;;;19.60;26.50;;;;;;5147366;27;46875;-16
2022/03/10 03:16:14;;;;;;;8.23;6.25;;;19.60;26.50;;;;;;5147437;27;48230;-16
2022/03/10 03:18:41;;;;;;;7.43;5.88;;;19.60;26.50;;;;;;5147279;27;47475;-16
2022/03/10 03:21:08;;;;;;;7.70;6.70;;;19.70;26.50;;;;;;5147315;27;46929;-17
2022/03/10 03:23:34;;;;;;;7.05;6.07;;;19.60;26.50;;;;;;5147403;27;47198;-16
2022/03/10 03:26:01;;;;;;;6.97;6.22;;;19.60;26.50;;;;;;5146693;27;47814;-16
2022/03/10 03:28:28;;;;;;;7.97;6.30;;;19.60;26.50;;;;;;5146966;27;46864;-15
2022/03/10 03:30:56;;;;;;;7.32;5.97;;;19.60;26.50;;;;;;5146879;27;46941;-16
2022/03/10 03:33:22;;;;;;;7.57;6.45;;;19.60;26.50;;;;;;5147380;27;46867;-15
2022/03/10 03:35:49;;;;;;;7.70;6.20;;;19.60;26.50;;;;;;5147005;27;48918;-16
2022/03/10 03:38:16;;;;;;;5.82;5.22;;;19.60;26.50;;;;;;5147114;27;47598;-15
2022/03/10 03:40:42;;;;;;;8.32;6.05;;;19.60;26.50;;;;;;5146969;27;46991;-15
2022/03/10 03:43:09;;;;;;;7.38;6.57;;;19.60;26.50;;;;;;5146948;27;46954;-16
2022/03/10 03:45:36;;;;;;;8.45;6.25;;;19.60;26.40;;;;;;5146817;27;49146;-15
2022/03/10 03:48:04;;;;;;;7.60;6.32;;;19.60;26.50;;;;;;5146576;27;46916;-15
2022/03/10 03:50:31;;;;;;;7.53;5.90;;;19.60;26.50;;;;;;5148206;27;46801;-16
2022/03/10 03:52:58;;;;;;;7.05;6.07;;;19.60;26.50;;;;;;5150605;27;46898;-16
2022/03/10 03:55:24;;;;;;;8.15;6.53;;;19.60;26.50;;;;;;5150186;27;47332;-16
2022/03/10 03:57:51;;;;;;;6.95;6.20;;;19.50;26.40;;;;;;5150604;27;47164;-16
2022/03/10 04:00:18;;;;;;;7.28;6.50;;;19.50;26.40;;;;;;5149933;27;47060;-15
2022/03/10 04:02:45;;;;;;;7.88;6.68;;;19.50;26.50;;;;;;5150658;27;47272;-16
2022/03/10 04:05:13;;;;;;;8.02;6.50;;;19.50;26.50;;;;;;5150261;27;48141;-15
2022/03/10 04:07:40;;;;;;;7.53;6.63;;;19.50;26.50;;;;;;5150076;27;47351;-15
2022/03/10 04:10:08;;;;;;;8.18;5.88;;;19.50;26.40;;;;;;5149612;27;46829;-16
2022/03/10 04:12:34;;;;;;;7.45;6.10;;;19.50;26.40;;;;;;5150492;27;46893;-15
2022/03/10 04:15:01;;;;;;;8.10;6.25;;;19.50;26.50;;;;;;5149661;27;48861;-16
2022/03/10 04:17:29;;;;;;;6.85;6.15;;;19.40;26.50;;;;;;5150263;27;46985;-15
2022/03/10 04:19:56;;;;;;;7.25;6.28;;;19.50;26.40;;;;;;5150062;27;46964;-16
2022/03/10 04:22:24;;;;;;;7.68;6.38;;;19.40;26.40;;;;;;5150374;27;46828;-16
2022/03/10 04:24:51;;;;;;;7.03;6.32;;;19.40;26.40;;;;;;5149983;27;47757;-16
2022/03/10 04:27:17;;;;;;;6.93;5.82;;;19.40;26.50;;;;;;5149691;27;46970;-15
2022/03/10 04:29:44;;;;;;;7.10;6.32;;;19.40;26.50;;;;;;5149984;27;46876;-17
2022/03/10 04:34:45;;;;;;;6.78;6.07;;;19.40;26.40;;;;;;5147915;27;47499;-15
2022/03/10 04:37:11;;;;;;;8.73;6.45;;;19.40;26.40;;;;;;5149946;27;47007;-15
2022/03/10 04:39:39;;;;;;;7.53;6.07;;;19.40;26.40;;;;;;5150034;27;47044;-15
2022/03/10 04:42:06;;;;;;;7.65;6.70;;;19.40;26.40;;;;;;5149745;27;47094;-18
2022/03/10 04:44:33;;;;;;;6.95;6.25;;;19.40;26.40;;;;;;5149240;27;47078;-16
2022/03/10 04:47:00;;;;;;;8.35;5.78;;;19.40;26.40;;;;;;5149365;27;46903;-16
2022/03/10 04:49:26;;;;;;;7.97;6.05;;;19.30;26.40;;;;;;5149538;27;46999;-16
2022/03/10 04:51:53;;;;;;;7.30;6.40;;;19.30;26.40;;;;;;5150055;27;46822;-16
2022/03/10 04:54:20;;;;;;;9.20;6.32;;;19.30;26.30;;;;;;5149095;27;47885;-16
2022/03/10 04:56:48;;;;;;;7.80;5.90;;;19.30;26.30;;;;;;5149427;27;46813;-15
2022/03/10 04:59:15;;;;;;;7.20;6.45;;;19.30;26.30;;;;;;5149421;27;47014;-15
2022/03/10 05:01:41;;;;;;;7.45;5.82;;;19.30;26.30;;;;;;5149307;27;46909;-15
2022/03/10 05:04:08;;;;;;;6.25;5.55;;;19.30;26.30;;;;;;5149323;27;49074;-15
2022/03/10 05:06:35;;;;;;;7.30;6.18;;;19.30;26.30;;;;;;5149385;27;46951;-16
2022/03/10 05:09:02;;;;;;;7.95;6.25;;;19.30;26.30;;;;;;5148947;27;46796;-17
2022/03/10 05:11:28;;;;;;;7.60;6.07;;;19.30;26.30;;;;;;5149365;27;47152;-15
2022/03/10 05:13:56;;;;;;;7.80;6.32;;;19.30;26.30;;;;;;5149205;27;48074;-15
2022/03/10 05:16:23;;;;;;;7.32;5.82;;;19.30;26.30;;;;;;5149305;27;46840;-16
2022/03/10 05:18:50;;;;;;;7.63;5.80;;;19.30;26.30;;;;;;5149241;27;46870;-15
2022/03/10 05:21:16;;;;;;;8.60;5.80;;;19.30;26.30;;;;;;5149159;27;46879;-16
2022/03/10 05:23:43;;;;;;;8.25;6.72;;;19.30;26.30;;;;;;5149128;27;47164;-17
2022/03/10 05:26:10;;;;;;;6.93;5.65;;;19.30;26.30;;;;;;5148898;27;47036;-16
2022/03/10 05:28:36;;;;;;;6.63;5.78;;;19.20;26.30;;;;;;5148685;27;46919;-16
2022/03/10 05:31:04;;;;;;;6.25;5.65;;;19.30;26.30;;;;;;5149119;27;48285;-15
2022/03/10 05:33:31;;;;;;;6.90;5.53;;;19.30;26.20;;;;;;5149056;27;47068;-16
2022/03/10 05:35:59;;;;;;;7.60;6.18;;;19.30;26.30;;;;;;5147960;27;47449;-16
2022/03/10 05:38:25;;;;;;;7.70;6.10;;;19.20;26.30;;;;;;5149038;27;46921;-16
2022/03/10 05:40:52;;;;;;;6.88;6.05;;;19.20;26.30;;;;;;5148815;27;46809;-15
2022/03/10 05:43:19;;;;;;;7.72;5.88;;;19.20;26.30;;;;;;5148732;27;48846;-16
2022/03/10 05:45:45;;;;;;;6.68;5.47;;;19.20;26.30;;;;;;5148527;27;46890;-15
2022/03/10 05:48:13;;;;;;;7.57;5.80;;;19.20;26.20;;;;;;5148671;27;46831;-15
2022/03/10 05:50:40;;;;;;;7.13;6.32;;;19.20;26.30;;;;;;5148652;27;46852;-16
2022/03/10 05:53:07;;;;;;;7.97;6.15;;;19.20;26.30;;;;;;5148602;27;48784;-16
2022/03/10 05:55:34;;;;;;;6.78;5.57;;;19.20;26.30;;;;;;5148294;27;46833;-16
2022/03/10 05:58:00;;;;;;;7.88;5.88;;;19.20;26.30;;;;;;5148581;27;46892;-16
2022/03/10 06:00:27;;;;;;;7.78;6.30;;;19.20;26.30;;;;;;5148294;27;46871;-16
2022/03/10 06:02:54;;;;;;;7.82;6.00;;;19.10;26.30;;;;;;5148261;27;46907;-16
2022/03/10 06:05:22;;;;;;;7.43;5.72;;;19.20;26.30;;;;;;5148307;27;47192;-16
2022/03/10 06:07:49;;;;;;;7.40;5.97;;;19.20;26.20;;;;;;5148160;27;46865;-16
2022/03/10 06:10:15;;;;;;;7.50;6.50;;;19.20;26.20;;;;;;5147806;27;46882;-15
2022/03/10 06:12:43;;;;;;;6.72;5.60;;;19.20;26.20;;;;;;5147262;27;48819;-16
2022/03/10 06:15:10;;;;;;;7.70;5.75;;;19.10;26.30;;;;;;5148091;27;46963;-15
2022/03/10 06:17:37;;;;;;;6.82;6.10;;;19.10;26.30;;;;;;5148329;27;46910;-16
2022/03/10 06:20:05;;;;;;;7.05;6.20;;;19.10;26.30;;;;;;5148160;27;46900;-17
2022/03/10 06:22:33;;;;;;;6.78;5.70;;;19.10;26.20;;;;;;5148063;27;48796;-16
2022/03/10 06:25:00;;;;;;;7.53;5.70;;;19.10;26.20;;;;;;5147637;27;46915;-15
2022/03/10 06:27:27;;;;;;;6.55;5.75;;;19.10;26.20;;;;;;5148226;27;46904;-15
2022/03/10 06:29:54;;;;;;;6.97;5.70;;;19.10;26.30;;;;;;5148053;27;46911;-15
2022/03/10 06:32:21;;;;;;;7.38;5.55;;;19.10;26.30;;;;;;5147821;27;48103;-15
2022/03/10 06:34:49;;;;;;;7.90;6.20;;;19.10;26.30;;;;;;5147472;27;47435;-17
2022/03/10 06:37:15;;;;;;;7.30;5.75;;;19.10;26.20;;;;;;5146795;27;46840;-16
2022/03/10 06:39:43;;;;;;;6.63;5.68;;;19.10;26.30;;;;;;5146523;27;46967;-16
2022/03/10 06:42:10;;;;;;;8.80;6.22;;;19.10;26.30;;;;;;5145294;27;47932;-16
2022/03/10 06:44:37;;;;;;;8.68;6.28;;;19.10;26.30;;;;;;5147596;27;46951;-16
2022/03/10 06:47:04;;;;;;;6.80;5.60;;;19.10;26.30;;;;;;5147653;27;47124;-16
2022/03/10 06:49:31;;;;;;;6.47;5.80;;;19.10;26.30;;;;;;5147837;27;46947;-16
2022/03/10 06:51:58;;;;;;;7.47;5.72;;;19.10;26.30;;;;;;5147694;27;46939;-15
2022/03/10 06:54:25;;;;;;;7.15;6.07;;;19.10;26.30;;;;;;5147109;27;46985;-17
2022/03/10 06:56:53;;;;;;;10.57;5.97;;;19.10;26.30;;;;;;5146945;27;47148;-16
2022/03/10 06:59:20;;;;;;;8.18;6.65;;;19.10;26.10;;;;;;5147405;27;47143;-16
2022/03/10 07:01:47;;;;;;;8.48;6.15;;;19.10;26.30;;;;;;5147173;27;48207;-16
2022/03/10 07:04:14;;;;;;;6.80;5.97;;;19.10;26.30;;;;;;5147441;27;47416;-16
2022/03/10 07:06:41;;;;;;;8.07;6.55;;;19.10;26.30;;;;;;5147603;27;46886;-17
2022/03/10 07:09:07;;;;;;;8.73;7.32;;;19.10;26.30;;;;;;5147178;27;46902;-15
2022/03/10 07:11:34;;;;;;;7.40;6.18;;;19.10;26.20;;;;;;5147455;27;49046;-16
2022/03/10 07:14:02;;;;;;;8.25;6.40;;;19.10;26.30;;;;;;5147259;27;47140;-16
2022/03/10 07:16:29;;;;;;;8.15;6.07;;;19.10;26.30;;;;;;5146678;27;47012;-16
2022/03/10 07:18:55;;;;;;;7.35;6.50;;;19.10;26.30;;;;;;5158847;27;47036;-16
2022/03/10 07:21:22;;;;;;;7.80;6.22;;;19.10;26.30;;;;;;5166257;27;47992;-16
2022/03/10 07:23:50;;;;;;;7.00;5.72;;;19.10;26.20;;;;;;5150764;27;46959;-16
2022/03/10 07:26:17;;;;;;;8.65;6.68;;;19.10;26.00;;;;;;5159105;27;47155;-16
2022/03/10 07:28:44;;;;;;;9.32;6.68;;;19.10;26.30;;;;;;5172150;27;47284;-17
2022/03/10 07:31:12;;;;;;;7.70;6.35;;;19.10;26.30;;;;;;5170306;27;47955;-16
2022/03/10 07:33:39;;;;;;;8.95;6.50;;;19.10;26.20;;;;;;5171737;27;46828;-22
2022/03/10 07:36:06;;;;;;;8.95;6.30;;;19.20;26.30;;;;;;5171911;27;46793;-22
2022/03/10 07:38:33;;;;;;;7.93;6.45;;;19.20;26.40;;;;;;5171585;27;46988;-22
2022/03/10 07:40:59;;;;;;;9.65;6.45;;;19.20;26.30;;;;;;5171531;27;48196;-22
2022/03/10 07:43:26;;;;;;;7.72;6.15;;;19.20;26.40;;;;;;5171689;27;46887;-20
2022/03/10 07:45:53;;;;;;;8.23;6.82;;;19.20;26.80;;;;;;5171211;27;46757;-22
2022/03/10 07:48:21;;;;;;;9.55;6.40;;;19.20;26.30;;;;;;5171688;27;47109;-22
2022/03/10 07:50:48;;;;;;;7.65;6.50;;;19.20;26.30;;;;;;5170882;27;48112;-22
2022/03/10 07:53:14;;;;;;;7.82;6.72;;;19.20;26.30;;;;;;5171241;27;47440;-22
2022/03/10 07:55:42;;;;;;;8.23;6.93;;;19.20;26.40;;;;;;5171118;27;46865;-21
2022/03/10 07:58:08;;;;;;;7.35;6.28;;;19.20;26.30;;;;;;5171405;27;47082;-21
2022/03/10 08:00:36;;;;;;;8.65;6.65;;;19.20;26.40;;;;;;5169150;27;48111;-22
2022/03/10 08:03:03;;;;;;;7.97;6.43;;;19.20;26.20;;;;;;5170287;27;46926;-22
2022/03/10 08:05:31;;;;;;;10.35;6.57;;;19.20;26.30;;;;;;5171379;27;46829;-22
2022/03/10 08:07:58;;;;;;;9.23;6.53;;;19.20;26.40;;;;;;5171326;27;46912;-21
2022/03/10 08:10:25;;;;;;;7.50;6.57;;;19.20;26.40;;;;;;5170545;27;49067;-21
2022/03/10 08:12:51;;;;;;;9.10;6.70;;;19.30;26.40;;;;;;5171141;27;47003;-22
2022/03/10 08:15:18;;;;;;;7.75;6.63;;;19.30;26.40;;;;;;5155267;27;47020;-22
2022/03/10 08:17:45;;;;;;;7.95;7.03;;;19.30;26.40;;;;;;5148427;27;47092;-21
2022/03/10 08:20:13;;;;;;;9.98;6.45;;;19.20;26.40;;;;;;5147782;27;47063;-21
2022/03/10 08:22:42;;;;;;;8.15;7.10;;;19.20;26.40;;;;;;5147926;27;46965;-21
2022/03/10 08:25:09;;;;;;;9.65;7.32;;;19.20;26.30;;;;;;5147594;27;46929;-22
2022/03/10 08:27:36;;;;;;;8.45;6.63;;;19.30;26.50;;;;;;5148234;27;47313;-22
2022/03/10 08:30:04;;;;;;;8.73;6.68;;;19.30;26.40;;;;;;5147132;27;46825;-22
2022/03/10 08:32:30;;;;;;;8.80;6.65;;;19.30;26.40;;;;;;5149736;27;46891;-22
2022/03/10 08:34:57;;;;;;;8.27;6.85;;;19.30;26.50;;;;;;5149592;27;46886;-21
2022/03/10 08:37:24;;;;;;;8.52;6.60;;;19.30;26.50;;;;;;5148879;27;46927;-21
2022/03/10 08:39:53;;;;;;;8.10;6.47;;;19.30;26.50;;;;;;5149452;27;48914;-22
2022/03/10 08:42:20;;;;;;;10.65;7.32;;;19.30;26.50;;;;;;5170300;27;46856;-22
2022/03/10 08:44:47;;;;;;;9.77;7.03;;;19.30;26.40;;;;;;5163496;27;46993;-22
2022/03/10 08:47:14;;;;;;;7.80;6.97;;;19.30;26.50;;;;;;5148682;27;46900;-21
2022/03/10 08:49:40;;;;;;;8.00;6.85;;;19.30;26.50;;;;;;5149161;27;46893;-21
2022/03/10 08:52:08;;;;;;;9.68;7.00;;;19.30;26.50;;;;;;5128478;27;46852;-22
2022/03/10 08:54:35;;;;;;;8.15;6.78;;;19.30;26.50;;;;;;5140213;27;46844;-21
2022/03/10 08:57:03;;;;;;;10.38;7.18;;;19.30;26.50;;;;;;5149532;27;47076;-21
2022/03/10 08:59:29;;;;;;;8.63;7.40;;;19.30;26.50;;;;;;5149387;27;46887;-21
2022/03/10 09:01:57;;;;;;;9.05;7.57;;;19.40;26.60;;;;;;5149268;27;47106;-22
2022/03/10 09:04:24;;;;;;;9.10;6.78;;;19.40;26.60;;;;;;5148910;27;46829;-21
2022/03/10 09:06:50;;;;;;;9.10;7.00;;;19.40;26.60;;;;;;5149536;27;47327;-21
2022/03/10 09:09:17;;;;;;;10.55;7.18;;;19.40;26.60;;;;;;5148741;27;47854;-20
2022/03/10 09:11:44;;;;;;;8.07;6.95;;;19.40;26.60;;;;;;5148763;27;47050;-21
2022/03/10 09:14:13;;;;;;;8.45;6.75;;;19.40;26.60;;;;;;5148115;27;46852;-22
2022/03/10 09:16:40;;;;;;;8.25;7.03;;;19.40;26.50;;;;;;5148521;27;47150;-22
2022/03/10 09:19:06;;;;;;;7.80;6.68;;;19.50;26.60;;;;;;5148648;27;46914;-22
2022/03/10 09:21:33;;;;;;;9.27;7.20;;;19.40;26.50;;;;;;5149183;27;47015;-21
2022/03/10 09:24:00;;;;;;;9.57;7.32;;;19.40;26.60;;;;;;5148780;27;46960;-22
2022/03/10 09:26:26;;;;;;;9.63;6.95;;;19.50;26.60;;;;;;5149329;27;46915;-22
2022/03/10 09:28:53;;;;;;;9.55;7.10;;;19.50;26.60;;;;;;5148815;27;49035;-22
2022/03/10 09:31:21;;;;;;;8.05;7.00;;;19.50;26.60;;;;;;5148860;27;46915;-21
2022/03/10 09:33:48;;;;;;;9.13;7.00;;;19.50;26.60;;;;;;5149077;27;46809;-22
2022/03/10 09:36:15;;;;;;;8.85;7.05;;;19.60;26.60;;;;;;5149113;27;46899;-22
2022/03/10 09:38:42;;;;;;;9.57;7.05;;;19.60;26.60;;;;;;5148510;27;47938;-21
2022/03/10 09:41:08;;;;;;;10.40;6.78;;;19.60;26.60;;;;;;5148087;27;47334;-21
2022/03/10 09:43:35;;;;;;;8.38;7.35;;;19.60;26.60;;;;;;5147438;27;46974;-21
2022/03/10 09:46:02;;;;;;;9.40;7.32;;;19.60;26.60;;;;;;5148409;27;46853;-21
2022/03/10 09:48:30;;;;;;;9.68;7.55;;;19.60;26.60;;;;;;5147347;27;48244;-21
2022/03/10 09:50:57;;;;;;;8.27;7.18;;;19.60;26.60;;;;;;5147863;27;46988;-21
2022/03/10 09:53:24;;;;;;;8.82;7.40;;;19.60;26.60;;;;;;5148768;27;46779;-21
2022/03/10 09:55:51;;;;;;;8.80;6.93;;;19.60;26.50;;;;;;5148502;27;47114;-21
2022/03/10 09:58:17;;;;;;;8.93;6.55;;;19.60;26.60;;;;;;5147990;27;47865;-21
2022/03/10 10:00:44;;;;;;;8.13;6.68;;;19.70;26.70;;;;;;5148125;27;47500;-22
2022/03/10 10:03:12;;;;;;;9.77;6.85;;;19.70;26.60;;;;;;5148324;27;46908;-20
2022/03/10 10:05:41;;;;;;;9.02;7.13;;;19.80;26.50;;;;;;5147994;27;46834;-22
2022/03/10 10:08:09;;;;;;;7.72;6.65;;;19.80;26.60;;;;;;5147259;27;47724;-21
2022/03/10 10:10:39;;;;;;;7.75;6.15;;;19.80;26.60;;;;;;5144956;27;47108;-23
2022/03/10 10:13:06;;;;;;;8.20;6.80;;;19.80;26.50;;;;;;5146428;27;47091;-16
2022/03/10 10:15:35;;;;;;;9.23;6.80;;;19.80;26.60;;;;;;5145930;27;47051;-16
2022/03/10 10:18:02;;;;;;;9.48;6.65;;;19.90;26.60;;;;;;5144318;27;47813;-16
2022/03/10 10:20:32;;;;;;;7.60;6.03;;;19.90;26.50;;;;;;5157817;27;46941;-16
2022/03/10 10:23:18;;;;;;;8.15;7.10;;;19.90;26.50;;;;;;5126413;27;47119;-16
2022/03/10 10:25:50;;;;;;;7.57;6.35;;;20.00;26.50;;;;;;5126727;27;47320;-15
2022/03/10 10:28:31;;;;;;;7.32;6.60;;;20.00;26.50;;;;;;5126797;27;48887;-15
2022/03/10 10:30:59;;;;;;;11.18;7.28;;;20.00;26.50;;;;;;5127016;27;46882;-15
2022/03/10 10:33:26;;;;;;;7.10;5.93;;;20.00;26.50;;;;;;5127173;27;46802;-16
2022/03/10 10:35:56;;;;;;;8.38;6.90;;;20.10;26.60;;;;;;5127122;27;46888;-15
2022/03/10 10:38:30;;;;;;;8.48;6.82;;;20.10;26.50;;;;;;5126542;27;47890;-16
2022/03/10 10:41:15;;;;;;;8.68;6.80;;;20.20;26.60;;;;;;5126859;27;46915;-15
2022/03/10 10:43:43;;;;;;;7.70;6.35;;;20.20;26.50;;;;;;5127201;27;46977;-15
2022/03/10 10:46:10;;;;;;;8.43;5.95;;;20.30;26.40;;;;;;5126948;27;46866;-17
2022/03/10 10:48:47;;;;;;;8.85;6.65;;;20.30;26.40;;;;;;5126598;27;46872;-16
2022/03/10 10:51:14;;;;;;;8.80;6.75;;;20.30;26.40;;;;;;5126817;27;46968;-15
2022/03/10 10:53:42;;;;;;;8.20;6.32;;;20.30;26.40;;;;;;5126805;27;46821;-17
2022/03/10 10:56:08;;;;;;;9.25;6.50;;;20.40;26.50;;;;;;5127025;27;46874;-16
2022/03/10 10:58:35;;;;;;;8.27;6.68;;;20.40;26.50;;;;;;5126321;27;47795;-16
2022/03/10 11:01:02;;;;;;;8.63;6.88;;;20.50;26.50;;;;;;5126124;27;46898;-15
2022/03/10 11:03:31;;;;;;;8.32;6.75;;;20.50;26.40;;;;;;5126583;27;46840;-15
2022/03/10 11:05:59;;;;;;;6.93;6.13;;;20.60;26.40;;;;;;5127077;27;47303;-15
2022/03/10 11:08:28;;;;;;;7.63;5.80;;;20.60;26.20;;;;;;5126647;27;48048;-16
2022/03/10 11:10:56;;;;;;;8.65;6.43;;;20.70;26.20;;;;;;5125964;27;46963;-15
2022/03/10 11:13:23;;;;;;;7.60;6.50;;;20.70;26.30;;;;;;5126611;27;46830;-15
2022/03/10 11:15:50;;;;;;;7.15;6.35;;;20.70;26.30;;;;;;5126667;27;46830;-15
2022/03/10 11:18:17;;;;;;;9.07;6.75;;;20.70;26.20;;;;;;5126421;27;47851;-15
2022/03/10 11:20:45;;;;;;;9.13;6.53;;;20.80;26.30;;;;;;5126066;27;47432;-17
2022/03/10 11:23:15;;;;;;;8.32;6.68;;;20.90;26.20;;;;;;5126335;27;46879;-16
2022/03/10 11:25:46;;;;;;;7.80;7.00;;;21.00;26.20;;;;;;5126488;27;47015;-15
2022/03/10 11:28:16;;;;;;;6.57;5.80;;;21.10;26.10;;;;;;5126204;27;47953;-15
2022/03/10 11:30:43;;;;;;;7.70;6.47;;;21.10;26.00;;;;;;5126059;27;46886;-15
2022/03/10 11:33:13;;;;;;;8.52;6.63;;;21.20;26.00;;;;;;5126415;27;46918;-15
2022/03/10 11:35:40;;;;;;;8.45;6.78;;;21.30;25.90;;;;;;5126302;27;47155;-15
2022/03/10 11:38:07;;;;;;;7.53;6.10;;;21.30;25.90;;;;;;5126089;27;48049;-15
2022/03/10 11:40:47;;;;;;;7.20;6.35;;;21.30;25.90;;;;;;5126424;27;47032;-15
2022/03/10 11:43:37;;;;;;;7.47;6.50;;;21.40;25.80;;;;;;5126369;27;46869;-15
2022/03/10 11:46:17;;;;;;;8.13;6.38;;;21.40;25.80;;;;;;5119179;27;48030;-15
2022/03/10 11:48:44;;;;;;;8.10;6.35;;;21.50;25.80;;;;;;5126005;27;48155;-16
2022/03/10 11:51:18;;;;;;;8.18;6.60;;;21.60;25.70;;;;;;5125960;27;46812;-15
2022/03/10 11:54:07;;;;;;;7.72;5.97;;;21.70;25.70;;;;;;5125673;27;46984;-16
2022/03/10 11:56:35;;;;;;;7.60;6.03;;;21.70;25.60;;;;;;5126445;27;46932;-15
2022/03/10 11:59:19;;;;;;;8.32;6.50;;;21.80;25.50;;;;;;5125629;27;48173;-14
2022/03/10 12:01:45;;;;;;;8.00;6.43;;;21.80;25.50;;;;;;5126293;27;47001;-15
2022/03/10 12:04:14;;;;;;;7.00;6.30;;;21.80;25.50;;;;;;5125405;27;46871;-15
2022/03/10 12:06:47;;;;;;;5.88;5.28;;;21.90;25.50;;;;;;5125520;27;46913;-15
2022/03/10 12:09:27;;;;;;;8.18;6.32;;;21.90;25.50;;;;;;5125216;27;46889;-15
2022/03/10 12:11:54;;;;;;;6.95;6.07;;;21.90;25.60;;;;;;5127550;27;47021;-14
2022/03/10 12:14:26;;;;;;;8.25;6.40;;;22.00;25.60;;;;;;5128589;27;46927;-16
2022/03/10 12:16:52;;;;;;;7.45;6.65;;;22.10;25.50;;;;;;5129781;27;47287;-15
2022/03/10 12:19:19;;;;;;;6.80;6.03;;;22.10;25.50;;;;;;5129082;27;47036;-15
2022/03/10 12:21:46;;;;;;;8.18;6.47;;;22.20;25.40;;;;;;5129411;27;47400;-15
2022/03/10 12:24:13;;;;;;;7.22;6.10;;;22.20;25.30;;;;;;5128769;27;46998;-15
2022/03/10 12:26:43;;;;;;;6.60;5.90;;;22.30;25.40;;;;;;5141228;27;46821;-15
2022/03/10 12:29:10;;;;;;;7.57;6.18;;;22.30;25.30;;;;;;5149544;27;49046;-15
2022/03/10 12:31:39;;;;;;;6.22;5.63;;;22.40;25.30;;;;;;5149960;27;46932;-16
2022/03/10 12:34:07;;;;;;;8.10;5.95;;;22.40;25.30;;;;;;5149639;27;46810;-15
2022/03/10 12:36:34;;;;;;;7.75;6.30;;;22.40;25.30;;;;;;5149903;27;47098;-16
2022/03/10 12:39:02;;;;;;;8.23;6.05;;;22.40;25.30;;;;;;5149732;27;47998;-15
2022/03/10 12:41:34;;;;;;;8.68;6.45;;;22.40;25.30;;;;;;5149551;27;46805;-15
2022/03/10 12:44:02;;;;;;;6.82;5.88;;;22.50;25.40;;;;;;5149796;27;47018;-15
2022/03/10 12:46:29;;;;;;;7.72;6.57;;;22.60;25.30;;;;;;5150265;27;46958;-15
2022/03/10 12:49:08;;;;;;;7.20;6.28;;;22.60;25.20;;;;;;5149675;27;48038;-15
2022/03/10 12:51:36;;;;;;;6.75;6.05;;;22.70;25.30;;;;;;5149633;27;47037;-15
2022/03/10 12:54:04;;;;;;;6.43;5.80;;;22.70;25.20;;;;;;5149301;27;47038;-15
2022/03/10 12:56:30;;;;;;;7.22;6.03;;;22.80;25.30;;;;;;5149554;27;46836;-15